Milton, Utah
Current Conditions -  °F | °C
As of 8:58 AM on Sunday 25 Jan 2015 (Local Time) from KHIF Reporting Station
Clear Clear  
Wind Chill: 30°   Ceiling: Unl
Heat Index: 34°   Visibility: 10mi
Dew Point: 24°   Wind: 5mph
Humidity: 66%   Direction: 130°SE
Pressure: 30.45"   Gusts: NA
Location:  41.0884°N, 111.576°W
Report Text: KHIF 251558Z AUTO 13004KT 10SM CLR 01/M04 A3045 RMK AO2 SLP323 T00131044
Loading
Personal Weather Stations






























Interactive Weather Map New forecast layout! Learn more

10-Day Weather Forecast

Advertisements
Track Severe Weather on mobile